Aérodrome :







RETROUVEZ-NOUS SUR...

 
LOGIN :

S'inscrire | Disclaimer

   EN    FR    IT 

 









Légende :    VFR   VFR Marginal   IFR   IFR Intensif   IFR Très Intensif
Visi : 
Plafond : 
>= 8 km
>= 3000ft
5 à 8 km
1000 à 3000 ft
1500m à 5 km
500 à 1000 ft
800 à 1500m
200 à 500 ft
< 800m
< 200 ft
Symboles :   Orages  Brouillard  Fortes neiges  Fortes précipitations  Vent > 20 kt






- Altitude de l'aérodrome : 454 ft


KIZG - Eastern Slopes Regional

DERNIER METAR :
  • 150205Z AUTO 00000KT 1 1/2SM BR SCT004 OVC009 04/04 A2909 RMK AO2 RAB0154E05 P0000 T00440044

METARs EXPIRÉS :
  • 150151Z AUTO 00000KT 2SM BR OVC009 05/04 A2910 RMK AO2 RAE50 SLP858 P0005 T00500044
  • 150135Z AUTO 00000KT 2 1/2SM -RA BR OVC010 05/04 A2911 RMK AO2 P0004 T00500044
  • 150054Z AUTO 00000KT 1SM -RA BR VV005 06/04 A2913 RMK AO2 RAB54 SLP868 P0001 T00560044
  • 150029Z AUTO 00000KT 1SM BR SCT003 OVC007 05/04 A2915 RMK AO2 T00500044
  • 150008Z AUTO 00000KT 3/4SM BR VV007 06/04 A2917 RMK AO2 PRESFR T00560044
  • 142354Z AUTO 00000KT 1 1/4SM BR OVC006 05/04 A2919 RMK AO2 RAB2257E33 SLP887 P0003 60006 T00500044 10083 20050 56029
  • 142328Z AUTO 00000KT 1SM -RA BR VV006 06/05 A2920 RMK AO2 RAB2257 P0002 T00560050
  • 142320Z AUTO 00000KT 3/4SM -RA BR VV006 06/05 A2921 RMK AO2 RAB2257 P0002 T00560050

TAF N/A



MET'MAP, la Météo Aéronautique d'un coup d'oeil ! - Copyright ORBIFLY Décembre 2007 - Disclaimer

ORBIFLY MET'MAP TEAM :

Programmation & Développement : Alexandra Zaïnal
Sur une idée originale de : Baudouin d'Aumeries
Assistance à la programmation : Marc-Olivier Méhu
Soutien technique & logistique : Manuel Goepfert

Contact : metmap@orbifly.com




SOURCES & CREDITS :

   NOAA